createdAt,value
2022-08-25T00:00:06.672Z,7.22
2022-08-25T00:00:28.533Z,7.53
2022-08-25T00:00:50.698Z,7.30
2022-08-25T00:01:33.649Z,7.70
2022-08-25T00:02:02.965Z,6.97
2022-08-25T00:02:25.380Z,7.22
2022-08-25T00:02:55.466Z,7.15
2022-08-25T00:03:18.243Z,7.80
2022-08-25T00:03:43.696Z,7.53
2022-08-25T00:04:10.993Z,7.82
2022-08-25T00:04:35.286Z,8.00
2022-08-25T00:05:00.002Z,8.40
2022-08-25T00:05:26.297Z,7.60
2022-08-25T00:05:49.577Z,6.90
2022-08-25T00:06:13.315Z,7.45
2022-08-25T00:06:35.372Z,8.50
2022-08-25T00:07:02.659Z,7.72
2022-08-25T00:07:24.806Z,8.02
2022-08-25T00:07:46.570Z,7.63
2022-08-25T00:08:08.759Z,7.60
2022-08-25T00:08:30.557Z,7.50
2022-08-25T00:08:52.813Z,7.25
2022-08-25T00:09:19.456Z,7.53
2022-08-25T00:09:41.262Z,7.72
2022-08-25T00:10:04.033Z,8.00
2022-08-25T00:10:28.947Z,7.15
2022-08-25T00:11:02.950Z,7.68
2022-08-25T00:11:28.931Z,7.88
2022-08-25T00:11:51.877Z,8.13
2022-08-25T00:12:13.996Z,7.85
2022-08-25T00:12:35.822Z,8.13
2022-08-25T00:12:57.832Z,7.22
2022-08-25T00:13:19.708Z,7.10
2022-08-25T00:13:45.353Z,7.38
2022-08-25T00:14:12.370Z,8.00
2022-08-25T00:14:37.442Z,7.78
2022-08-25T00:14:59.693Z,7.18
2022-08-25T00:15:22.849Z,6.90
2022-08-25T00:15:45.690Z,7.32
2022-08-25T00:16:07.921Z,7.30
2022-08-25T00:16:31.721Z,7.78
2022-08-25T00:16:56.033Z,7.80
2022-08-25T00:17:18.451Z,7.65
2022-08-25T00:17:40.250Z,7.07
2022-08-25T00:18:03.006Z,7.07
2022-08-25T00:18:25.343Z,7.00
2022-08-25T00:18:55.559Z,6.50
2022-08-25T00:19:21.568Z,6.80
2022-08-25T00:19:43.455Z,7.40
2022-08-25T00:20:06.943Z,7.47
2022-08-25T00:20:29.404Z,7.57
2022-08-25T00:20:51.426Z,7.63
2022-08-25T00:21:15.321Z,7.10
2022-08-25T00:21:38.442Z,7.10
2022-08-25T00:22:01.953Z,7.00
2022-08-25T00:22:23.703Z,7.25
2022-08-25T00:22:46.069Z,7.43
2022-08-25T00:23:07.883Z,7.07
2022-08-25T00:23:30.404Z,6.93
2022-08-25T00:23:52.402Z,7.25
2022-08-25T00:24:16.296Z,6.97
2022-08-25T00:24:43.188Z,7.57
2022-08-25T00:25:05.468Z,7.50
2022-08-25T00:25:27.698Z,7.05
2022-08-25T00:25:50.881Z,6.53
2022-08-25T00:26:13.855Z,7.18
2022-08-25T00:26:38.491Z,7.30
2022-08-25T00:27:01.925Z,7.00
2022-08-25T00:27:24.066Z,7.32
2022-08-25T00:27:47.315Z,7.32
2022-08-25T00:28:10.395Z,7.47
2022-08-25T00:28:32.821Z,7.43
2022-08-25T00:29:01.192Z,7.22
2022-08-25T00:29:27.677Z,7.30
2022-08-25T00:29:50.449Z,7.47
2022-08-25T00:30:15.853Z,7.25
2022-08-25T00:30:39.134Z,7.32
2022-08-25T00:31:01.962Z,7.53
2022-08-25T00:31:24.017Z,7.47
2022-08-25T00:32:00.087Z,7.10
2022-08-25T00:32:24.645Z,7.38
2022-08-25T00:32:55.082Z,7.05
2022-08-25T00:33:19.615Z,7.35
2022-08-25T00:33:45.127Z,7.60
2022-08-25T00:34:26.766Z,7.63
2022-08-25T00:34:48.588Z,7.60
2022-08-25T00:35:10.826Z,8.00
2022-08-25T00:35:33.575Z,7.60
2022-08-25T00:35:56.418Z,7.60
2022-08-25T00:36:20.191Z,7.38
2022-08-25T00:36:43.490Z,7.80
2022-08-25T00:37:09.232Z,7.68
2022-08-25T00:37:31.581Z,7.72
2022-08-25T00:37:54.354Z,8.23
2022-08-25T00:38:16.893Z,8.15
2022-08-25T00:38:43.412Z,7.68
2022-08-25T00:39:07.824Z,7.95
2022-08-25T00:39:30.468Z,8.15
2022-08-25T00:39:53.298Z,8.60
2022-08-25T00:40:15.774Z,7.72
2022-08-25T00:40:39.516Z,7.47
2022-08-25T00:41:07.517Z,8.00
2022-08-25T00:41:29.672Z,7.13
2022-08-25T00:41:54.259Z,7.50
2022-08-25T00:42:16.531Z,7.78
2022-08-25T00:42:38.545Z,8.02
2022-08-25T00:43:00.843Z,8.68
2022-08-25T00:43:23.012Z,7.80
2022-08-25T00:43:49.740Z,8.23
2022-08-25T00:44:14.084Z,7.68
2022-08-25T00:44:36.486Z,8.32
2022-08-25T00:44:58.431Z,8.13
2022-08-25T00:45:20.812Z,8.00
2022-08-25T00:45:44.896Z,8.15
2022-08-25T00:46:10.976Z,7.32
2022-08-25T00:46:38.216Z,7.68
2022-08-25T00:47:02.018Z,7.63
2022-08-25T00:47:24.502Z,8.35
2022-08-25T00:47:46.929Z,8.15
2022-08-25T00:48:08.713Z,8.38
2022-08-25T00:48:30.577Z,8.98
2022-08-25T00:49:02.981Z,8.23
2022-08-25T00:49:33.601Z,7.70
2022-08-25T00:49:59.249Z,8.48
2022-08-25T00:50:22.997Z,8.20
2022-08-25T00:50:48.652Z,7.80
2022-08-25T00:51:13.884Z,8.18
2022-08-25T00:51:43.026Z,8.43
2022-08-25T00:52:05.419Z,8.77
2022-08-25T00:52:32.409Z,8.50
2022-08-25T00:52:58.714Z,8.75
2022-08-25T00:53:21.397Z,7.88
2022-08-25T00:53:44.395Z,7.70
2022-08-25T00:54:07.996Z,8.60
2022-08-25T00:54:35.054Z,8.20
2022-08-25T00:55:03.025Z,8.45
2022-08-25T00:55:40.467Z,9.25
2022-08-25T00:56:02.842Z,8.18
2022-08-25T00:56:25.723Z,8.43
2022-08-25T00:56:47.911Z,8.13
2022-08-25T00:57:13.119Z,7.88
2022-08-25T00:57:39.289Z,8.10
2022-08-25T00:58:14.541Z,8.05
2022-08-25T00:58:38.548Z,8.52
2022-08-25T00:59:01.053Z,8.80
2022-08-25T00:59:24.520Z,7.78
2022-08-25T00:59:46.689Z,7.88
2022-08-25T01:00:16.200Z,8.23
2022-08-25T01:00:41.894Z,8.45
2022-08-25T01:01:04.403Z,9.32
2022-08-25T01:01:26.998Z,8.73
2022-08-25T01:01:52.930Z,8.45
2022-08-25T01:02:15.372Z,8.32
2022-08-25T01:02:38.845Z,8.32
2022-08-25T01:03:01.647Z,8.52
2022-08-25T01:03:32.903Z,8.52
2022-08-25T01:03:55.339Z,8.10
2022-08-25T01:04:18.140Z,8.07
2022-08-25T01:04:39.923Z,8.40
2022-08-25T01:05:01.982Z,8.38
2022-08-25T01:05:25.534Z,8.07
2022-08-25T01:05:48.273Z,8.00
2022-08-25T01:06:11.906Z,8.30
2022-08-25T01:06:38.341Z,8.23
2022-08-25T01:07:02.048Z,8.40
2022-08-25T01:07:24.721Z,7.82
2022-08-25T01:07:47.059Z,7.80
2022-08-25T01:08:10.437Z,8.45
2022-08-25T01:08:33.120Z,8.20
2022-08-25T01:08:55.160Z,8.07
2022-08-25T01:09:19.083Z,8.73
2022-08-25T01:09:43.129Z,8.15
2022-08-25T01:10:07.971Z,8.00
2022-08-25T01:10:31.053Z,8.02
2022-08-25T01:10:53.194Z,8.05
2022-08-25T01:11:15.330Z,8.70
2022-08-25T01:11:37.366Z,8.18
2022-08-25T01:12:00.541Z,7.72
2022-08-25T01:12:22.727Z,8.00
2022-08-25T01:12:44.815Z,7.82
2022-08-25T01:13:30.019Z,8.32
2022-08-25T01:13:55.129Z,8.05
2022-08-25T01:14:20.087Z,7.40
2022-08-25T01:14:45.970Z,8.27
2022-08-25T01:15:10.338Z,7.53
2022-08-25T01:15:34.440Z,8.23
2022-08-25T01:16:00.590Z,7.65
2022-08-25T01:16:23.153Z,7.43
2022-08-25T01:16:45.589Z,7.60
2022-08-25T01:17:07.460Z,8.75
2022-08-25T01:17:51.928Z,8.32
2022-08-25T01:18:14.071Z,7.85
2022-08-25T01:18:58.203Z,8.48
2022-08-25T01:19:21.140Z,8.13
2022-08-25T01:19:42.977Z,8.10
2022-08-25T01:20:05.170Z,7.65
2022-08-25T01:20:29.735Z,7.80
2022-08-25T01:20:53.809Z,7.80
2022-08-25T01:21:18.110Z,8.40
2022-08-25T01:21:45.855Z,7.88
2022-08-25T01:22:08.750Z,8.70
2022-08-25T01:22:32.346Z,8.38
2022-08-25T01:22:55.290Z,7.78
2022-08-25T01:23:17.376Z,8.68
2022-08-25T01:23:39.257Z,8.50
2022-08-25T01:24:02.375Z,8.55
2022-08-25T01:24:32.053Z,8.25
2022-08-25T01:25:14.451Z,8.52
2022-08-25T01:26:07.727Z,8.70
2022-08-25T01:26:33.066Z,8.30
2022-08-25T01:26:54.884Z,8.43
2022-08-25T01:27:17.044Z,8.07
2022-08-25T01:27:38.800Z,8.18
2022-08-25T01:28:00.917Z,8.60
2022-08-25T01:28:22.863Z,8.15
2022-08-25T01:29:06.531Z,8.30
2022-08-25T01:29:29.887Z,8.45
2022-08-25T01:29:51.871Z,8.32
2022-08-25T01:30:14.345Z,7.88
2022-08-25T01:30:37.005Z,8.43
2022-08-25T01:30:58.891Z,8.00
2022-08-25T01:31:23.798Z,8.10
2022-08-25T01:31:46.855Z,7.85
2022-08-25T01:32:12.168Z,8.57
2022-08-25T01:32:35.097Z,7.80
2022-08-25T01:32:57.008Z,7.97
2022-08-25T01:33:18.901Z,8.65
2022-08-25T01:33:42.861Z,7.97
2022-08-25T01:34:07.791Z,7.63
2022-08-25T01:34:32.808Z,7.97
2022-08-25T01:34:55.214Z,7.35
2022-08-25T01:35:17.348Z,8.60
2022-08-25T01:35:40.591Z,8.38
2022-08-25T01:36:03.256Z,7.97
2022-08-25T01:36:27.681Z,7.72
2022-08-25T01:36:50.093Z,7.82
2022-08-25T01:37:14.423Z,8.32
2022-08-25T01:37:36.439Z,8.50
2022-08-25T01:37:58.243Z,8.20
2022-08-25T01:38:21.036Z,8.07
2022-08-25T01:38:45.194Z,8.23
2022-08-25T01:39:07.080Z,8.30
2022-08-25T01:39:30.944Z,8.32
2022-08-25T01:39:53.044Z,8.70
2022-08-25T01:40:15.086Z,8.57
2022-08-25T01:40:38.404Z,8.27
2022-08-25T01:41:01.129Z,8.00
2022-08-25T01:41:51.341Z,8.57
2022-08-25T01:42:33.635Z,8.48
2022-08-25T01:43:02.707Z,7.72
2022-08-25T01:43:35.879Z,8.60
2022-08-25T01:43:57.720Z,8.68
2022-08-25T01:44:19.605Z,7.93
2022-08-25T01:44:45.178Z,8.25
2022-08-25T01:45:10.346Z,8.52
2022-08-25T01:45:36.096Z,8.70
2022-08-25T01:45:58.340Z,8.15
2022-08-25T01:46:20.264Z,8.63
2022-08-25T01:46:42.655Z,8.73
2022-08-25T01:47:06.307Z,8.40
2022-08-25T01:47:29.254Z,7.85
2022-08-25T01:47:52.709Z,8.60
2022-08-25T01:48:16.235Z,8.52
2022-08-25T01:48:38.409Z,8.38
2022-08-25T01:49:06.595Z,8.02
2022-08-25T01:49:28.768Z,8.02
2022-08-25T01:49:50.601Z,7.57
2022-08-25T01:50:12.395Z,8.75
2022-08-25T01:50:34.994Z,7.85
2022-08-25T01:50:56.778Z,7.50
2022-08-25T01:51:23.625Z,8.00
2022-08-25T01:51:53.745Z,7.88
2022-08-25T01:52:49.666Z,7.90
2022-08-25T01:53:28.312Z,8.37
2022-08-25T01:53:50.887Z,8.57
2022-08-25T01:54:12.863Z,8.27
2022-08-25T01:54:34.665Z,7.85
2022-08-25T01:54:57.713Z,8.10
2022-08-25T01:55:20.711Z,8.38
2022-08-25T01:56:02.732Z,8.52
2022-08-25T01:56:25.779Z,8.77
2022-08-25T01:56:48.111Z,8.40
2022-08-25T01:57:09.863Z,9.07
2022-08-25T01:57:31.764Z,8.10
2022-08-25T01:57:53.648Z,8.43
2022-08-25T01:58:15.427Z,8.90
2022-08-25T01:58:40.575Z,9.10
2022-08-25T01:59:02.382Z,9.18
2022-08-25T01:59:25.281Z,8.55
2022-08-25T01:59:47.580Z,8.25
2022-08-25T02:00:12.999Z,8.52
2022-08-25T02:00:34.766Z,8.38
2022-08-25T02:00:59.353Z,9.07
2022-08-25T02:01:23.628Z,9.13
2022-08-25T02:01:45.764Z,9.25
2022-08-25T02:02:08.331Z,8.35
2022-08-25T02:02:32.961Z,8.90
2022-08-25T02:02:55.662Z,8.80
2022-08-25T02:03:18.908Z,9.35
2022-08-25T02:03:43.330Z,8.75
2022-08-25T02:04:06.250Z,8.57
2022-08-25T02:04:32.392Z,8.68
2022-08-25T02:04:54.478Z,8.98
2022-08-25T02:05:20.313Z,9.13
2022-08-25T02:05:45.205Z,9.40
2022-08-25T02:06:12.828Z,9.15
2022-08-25T02:06:35.220Z,8.55
2022-08-25T02:06:57.670Z,8.30
2022-08-25T02:07:20.125Z,8.13
2022-08-25T02:07:42.888Z,8.65
2022-08-25T02:08:04.814Z,9.27
2022-08-25T02:08:26.710Z,9.70
2022-08-25T02:09:02.368Z,8.65
2022-08-25T02:09:24.732Z,8.75
2022-08-25T02:09:46.709Z,8.63
2022-08-25T02:10:10.541Z,9.00
2022-08-25T02:10:33.823Z,9.13
2022-08-25T02:10:55.801Z,9.00
2022-08-25T02:11:17.840Z,8.45
2022-08-25T02:11:42.381Z,8.30
2022-08-25T02:12:04.745Z,9.05
2022-08-25T02:12:26.548Z,8.80
2022-08-25T02:12:48.386Z,8.55
2022-08-25T02:13:10.964Z,8.45
2022-08-25T02:13:32.877Z,8.50
2022-08-25T02:13:54.768Z,8.77
2022-08-25T02:14:18.361Z,8.82
2022-08-25T02:14:40.735Z,9.13
2022-08-25T02:15:06.153Z,9.20
2022-08-25T02:15:28.124Z,8.57
2022-08-25T02:15:52.941Z,8.80
2022-08-25T02:16:22.982Z,8.80
2022-08-25T02:16:48.676Z,8.33
2022-08-25T02:17:10.501Z,8.90
2022-08-25T02:17:32.302Z,8.65
2022-08-25T02:17:54.287Z,8.98
2022-08-25T02:18:16.489Z,8.93
2022-08-25T02:18:38.642Z,8.70
2022-08-25T02:19:00.976Z,8.75
2022-08-25T02:19:24.670Z,8.57
2022-08-25T02:19:46.841Z,8.77
2022-08-25T02:20:09.704Z,8.77
2022-08-25T02:20:31.553Z,8.10
2022-08-25T02:20:54.254Z,8.48
2022-08-25T02:21:16.795Z,9.00
2022-08-25T02:21:39.445Z,8.65
2022-08-25T02:22:01.629Z,8.38
2022-08-25T02:22:23.891Z,9.20
2022-08-25T02:22:51.128Z,9.02
2022-08-25T02:23:18.604Z,8.77
2022-08-25T02:23:41.889Z,8.63
2022-08-25T02:24:04.315Z,8.93
2022-08-25T02:24:26.510Z,8.73
2022-08-25T02:24:48.340Z,8.52
2022-08-25T02:25:10.571Z,9.13
2022-08-25T02:25:33.771Z,8.68
2022-08-25T02:25:57.217Z,9.00
2022-08-25T02:26:19.978Z,8.90
2022-08-25T02:26:42.484Z,8.27
2022-08-25T02:27:04.859Z,8.10
2022-08-25T02:27:26.657Z,8.75
2022-08-25T02:27:48.624Z,8.40
2022-08-25T02:28:11.266Z,8.55
2022-08-25T02:28:33.093Z,8.70
2022-08-25T02:28:55.003Z,8.68
2022-08-25T02:29:17.288Z,8.75
2022-08-25T02:29:40.828Z,9.38
2022-08-25T02:30:16.677Z,8.80
2022-08-25T02:30:42.541Z,8.63
2022-08-25T02:32:59.470Z,8.93
2022-08-25T02:33:22.494Z,9.27
2022-08-25T02:33:44.289Z,8.65
2022-08-25T02:34:07.546Z,8.27
2022-08-25T02:34:29.508Z,8.57
2022-08-25T02:34:51.337Z,8.57
2022-08-25T02:35:14.850Z,8.18
2022-08-25T02:35:37.308Z,7.93
2022-08-25T02:36:01.002Z,8.40
2022-08-25T02:36:23.408Z,8.38
2022-08-25T02:36:46.085Z,8.80
2022-08-25T02:37:08.747Z,9.20
2022-08-25T02:37:30.513Z,8.80
2022-08-25T02:37:53.525Z,8.75
2022-08-25T02:38:17.089Z,9.07
2022-08-25T02:38:39.989Z,9.00
2022-08-25T02:39:04.092Z,9.70
2022-08-25T02:39:26.114Z,9.85
2022-08-25T02:39:48.171Z,9.68
2022-08-25T02:40:12.617Z,9.25
2022-08-25T02:40:36.453Z,9.00
2022-08-25T02:40:59.236Z,9.20
2022-08-25T02:41:25.219Z,9.73
2022-08-25T02:41:54.018Z,9.18
2022-08-25T02:42:15.982Z,8.82
2022-08-25T02:42:37.845Z,9.15
2022-08-25T02:42:59.655Z,9.13
2022-08-25T02:43:21.580Z,9.20
2022-08-25T02:43:44.442Z,9.30
2022-08-25T02:44:09.821Z,8.63
2022-08-25T02:44:31.886Z,8.98
2022-08-25T02:44:54.074Z,9.20
2022-08-25T02:45:15.970Z,8.90
2022-08-25T02:45:39.676Z,8.93
2022-08-25T02:46:01.625Z,8.93
2022-08-25T02:46:25.089Z,9.48
2022-08-25T02:46:47.181Z,9.80
2022-08-25T02:47:09.942Z,9.60
2022-08-25T02:47:31.951Z,9.75
2022-08-25T02:47:54.635Z,9.35
2022-08-25T02:48:16.690Z,9.63
2022-08-25T02:48:40.211Z,9.20
2022-08-25T02:49:02.333Z,9.23
2022-08-25T02:49:24.379Z,9.50
2022-08-25T02:49:46.212Z,8.98
2022-08-25T02:50:09.612Z,8.75
2022-08-25T02:50:31.427Z,8.85
2022-08-25T02:50:53.652Z,9.23
2022-08-25T02:51:16.687Z,9.43
2022-08-25T02:51:41.135Z,9.95
2022-08-25T02:52:03.275Z,9.30
2022-08-25T02:52:26.805Z,8.75
2022-08-25T02:52:50.595Z,8.60
2022-08-25T02:53:12.355Z,8.48
2022-08-25T02:53:36.823Z,9.32
2022-08-25T02:54:02.363Z,9.32
2022-08-25T02:54:25.591Z,9.18
2022-08-25T02:54:47.510Z,8.48
2022-08-25T02:55:12.864Z,8.98
2022-08-25T02:55:35.002Z,8.82
2022-08-25T02:55:58.515Z,8.77
2022-08-25T02:56:20.555Z,8.82
2022-08-25T02:56:42.975Z,9.32
2022-08-25T02:57:07.564Z,9.50
2022-08-25T02:57:29.419Z,9.60
2022-08-25T02:57:51.591Z,8.98
2022-08-25T02:58:14.677Z,8.63
2022-08-25T02:58:37.320Z,9.05
2022-08-25T02:59:00.813Z,9.90
2022-08-25T02:59:23.326Z,10.10
2022-08-25T02:59:48.395Z,9.38
2022-08-25T03:00:12.941Z,9.52
2022-08-25T03:00:35.295Z,9.65
2022-08-25T03:00:57.319Z,9.85
2022-08-25T03:01:19.607Z,9.45
2022-08-25T03:01:41.513Z,9.60
2022-08-25T03:02:03.789Z,9.70
2022-08-25T03:02:26.867Z,9.43
2022-08-25T03:02:48.705Z,9.43
2022-08-25T03:03:10.582Z,9.80
2022-08-25T03:03:37.546Z,9.95
2022-08-25T03:04:02.061Z,9.50
2022-08-25T03:04:24.374Z,9.30
2022-08-25T03:04:46.372Z,9.75
2022-08-25T03:05:10.243Z,10.10
2022-08-25T03:05:32.801Z,9.63
2022-08-25T03:05:56.087Z,9.57
2022-08-25T03:06:21.083Z,9.38
2022-08-25T03:06:43.039Z,9.57
2022-08-25T03:07:05.740Z,9.82
2022-08-25T03:07:27.670Z,10.10
2022-08-25T03:07:52.156Z,9.38
2022-08-25T03:08:16.570Z,9.40
2022-08-25T03:08:38.768Z,9.77
2022-08-25T03:09:01.411Z,9.43
2022-08-25T03:09:23.701Z,9.60
2022-08-25T03:09:46.329Z,9.90
2022-08-25T03:10:11.766Z,10.07
2022-08-25T03:10:34.429Z,9.30
2022-08-25T03:10:56.312Z,9.25
2022-08-25T03:11:18.309Z,8.98
2022-08-25T03:11:40.683Z,8.95
2022-08-25T03:12:02.551Z,9.18
2022-08-25T03:12:24.589Z,9.02
2022-08-25T03:12:46.468Z,8.90
2022-08-25T03:13:08.314Z,9.18
2022-08-25T03:13:32.694Z,9.20
2022-08-25T03:13:56.443Z,9.73
2022-08-25T03:14:18.557Z,9.25
2022-08-25T03:14:41.004Z,9.35
2022-08-25T03:15:09.252Z,9.23
2022-08-25T03:15:37.686Z,8.50
2022-08-25T03:16:01.429Z,9.20
2022-08-25T03:16:27.716Z,8.98
2022-08-25T03:16:50.255Z,9.23
2022-08-25T03:17:12.111Z,9.52
2022-08-25T03:17:34.147Z,9.88
2022-08-25T03:17:59.895Z,9.43
2022-08-25T03:18:23.152Z,9.85
2022-08-25T03:18:48.538Z,10.07
2022-08-25T03:19:11.538Z,9.38
2022-08-25T03:19:33.745Z,10.20
2022-08-25T03:19:57.446Z,10.20
2022-08-25T03:20:20.698Z,9.07
2022-08-25T03:20:43.107Z,9.20
2022-08-25T03:21:05.565Z,9.68
2022-08-25T03:21:29.200Z,9.63
2022-08-25T03:21:52.528Z,10.00
2022-08-25T03:22:14.746Z,9.80
2022-08-25T03:22:36.937Z,10.13
2022-08-25T03:22:58.719Z,10.40
2022-08-25T03:23:20.654Z,9.80
2022-08-25T03:23:43.620Z,10.07
2022-08-25T03:24:06.863Z,10.23
2022-08-25T03:24:28.968Z,9.77
2022-08-25T03:24:50.974Z,10.25
2022-08-25T03:25:31.595Z,10.18
2022-08-25T03:26:15.733Z,10.15
2022-08-25T03:26:54.143Z,10.00
2022-08-25T03:27:15.999Z,9.68
2022-08-25T03:27:37.925Z,9.65
2022-08-25T03:28:00.223Z,10.05
2022-08-25T03:28:28.937Z,10.40
2022-08-25T03:28:52.462Z,10.07
2022-08-25T03:29:14.414Z,9.90
2022-08-25T03:29:36.253Z,9.93
2022-08-25T03:29:58.053Z,10.10
2022-08-25T03:30:20.564Z,9.93
2022-08-25T03:30:44.040Z,9.98
2022-08-25T03:31:06.051Z,10.43
2022-08-25T03:31:28.083Z,9.88
2022-08-25T03:31:51.183Z,10.02
2022-08-25T03:32:13.112Z,9.98
2022-08-25T03:32:35.087Z,10.57
2022-08-25T03:32:57.102Z,10.02
2022-08-25T03:33:19.500Z,10.05
2022-08-25T03:33:41.393Z,9.70
2022-08-25T03:34:04.048Z,9.40
2022-08-25T03:34:27.987Z,9.23
2022-08-25T03:34:50.026Z,9.13
2022-08-25T03:35:12.687Z,9.52
2022-08-25T03:35:37.615Z,9.68
2022-08-25T03:35:59.749Z,10.02
2022-08-25T03:36:21.925Z,10.18
2022-08-25T03:36:45.821Z,10.18
2022-08-25T03:37:08.573Z,9.70
2022-08-25T03:37:32.105Z,10.55
2022-08-25T03:38:00.654Z,10.40
2022-08-25T03:38:26.024Z,9.65
2022-08-25T03:38:47.891Z,10.32
2022-08-25T03:39:09.896Z,10.55
2022-08-25T03:39:33.032Z,10.38
2022-08-25T03:39:54.891Z,10.02
2022-08-25T03:40:17.654Z,10.77
2022-08-25T03:40:39.545Z,11.10
2022-08-25T03:41:02.182Z,10.70
2022-08-25T03:41:29.096Z,10.60
2022-08-25T03:41:52.115Z,10.25
2022-08-25T03:42:13.954Z,10.27
2022-08-25T03:42:36.430Z,10.05
2022-08-25T03:42:58.375Z,10.80
2022-08-25T03:43:20.506Z,10.90
2022-08-25T03:43:43.190Z,10.05
2022-08-25T03:44:09.965Z,10.43
2022-08-25T03:44:31.820Z,10.00
2022-08-25T03:44:54.686Z,10.05
2022-08-25T03:45:17.355Z,10.38
2022-08-25T03:45:44.648Z,11.07
2022-08-25T03:46:06.787Z,10.52
2022-08-25T03:46:32.178Z,10.57
2022-08-25T03:46:54.140Z,10.20
2022-08-25T03:47:15.936Z,10.45
2022-08-25T03:47:39.116Z,10.10
2022-08-25T03:48:00.897Z,10.40
2022-08-25T03:48:22.690Z,11.23
2022-08-25T03:48:44.667Z,10.88
2022-08-25T03:49:08.384Z,11.13
2022-08-25T03:49:31.462Z,11.13
2022-08-25T03:49:57.277Z,10.95
2022-08-25T03:50:21.099Z,10.70
2022-08-25T03:50:51.583Z,10.32
2022-08-25T03:51:21.673Z,10.65
2022-08-25T03:51:49.112Z,10.32
2022-08-25T03:52:12.152Z,10.40
2022-08-25T03:52:36.961Z,10.07
2022-08-25T03:53:02.803Z,10.10
2022-08-25T03:53:24.865Z,10.20
2022-08-25T03:53:46.744Z,10.32
2022-08-25T03:54:10.678Z,10.32
2022-08-25T03:54:32.431Z,9.82
2022-08-25T03:54:54.267Z,10.30
2022-08-25T03:55:16.070Z,10.68
2022-08-25T03:55:38.261Z,10.65
2022-08-25T03:56:00.219Z,10.02
2022-08-25T03:56:22.106Z,10.23
2022-08-25T03:56:45.592Z,10.10
2022-08-25T03:57:07.664Z,9.82
2022-08-25T03:57:29.434Z,10.30
2022-08-25T03:57:52.842Z,10.27
2022-08-25T03:58:15.439Z,9.95
2022-08-25T03:58:37.397Z,9.63
2022-08-25T03:59:00.102Z,10.05
2022-08-25T03:59:23.728Z,9.82
2022-08-25T03:59:45.646Z,9.60
2022-08-25T04:00:10.137Z,9.63
2022-08-25T04:00:32.227Z,9.40
2022-08-25T04:00:54.675Z,9.82
2022-08-25T04:01:18.202Z,9.60
2022-08-25T04:01:42.264Z,9.30
2022-08-25T04:02:05.117Z,8.88
2022-08-25T04:02:27.183Z,9.10
2022-08-25T04:02:49.713Z,9.30
2022-08-25T04:03:12.018Z,9.75
2022-08-25T04:03:33.954Z,10.13
2022-08-25T04:03:57.634Z,10.00
2022-08-25T04:04:20.434Z,10.10
2022-08-25T04:04:43.880Z,9.43
2022-08-25T04:05:06.463Z,10.18
2022-08-25T04:05:28.721Z,10.10
2022-08-25T04:05:51.455Z,9.85
2022-08-25T04:06:15.481Z,9.43
2022-08-25T04:06:39.058Z,9.52
2022-08-25T04:07:01.373Z,9.48
2022-08-25T04:07:23.216Z,9.50
2022-08-25T04:07:44.979Z,9.73
2022-08-25T04:08:08.010Z,9.65
2022-08-25T04:08:30.030Z,9.45
2022-08-25T04:08:52.854Z,9.80
2022-08-25T04:09:15.188Z,9.93
2022-08-25T04:09:37.268Z,9.93
2022-08-25T04:09:59.071Z,9.00
2022-08-25T04:10:21.114Z,9.40
2022-08-25T04:10:42.962Z,9.52
2022-08-25T04:11:09.083Z,9.80
2022-08-25T04:11:31.223Z,9.40
2022-08-25T04:11:53.608Z,9.65
2022-08-25T04:12:15.853Z,9.50
2022-08-25T04:12:40.783Z,9.25
2022-08-25T04:13:02.697Z,8.95
2022-08-25T04:13:24.430Z,9.13
2022-08-25T04:13:47.605Z,9.43
2022-08-25T04:14:09.549Z,9.18
2022-08-25T04:14:37.720Z,9.35
2022-08-25T04:14:59.601Z,9.33
2022-08-25T04:15:22.014Z,9.40
2022-08-25T04:15:44.325Z,9.65
2022-08-25T04:16:19.010Z,9.80
2022-08-25T04:16:41.241Z,9.50
2022-08-25T04:17:04.348Z,10.00
2022-08-25T04:17:26.134Z,8.93
2022-08-25T04:17:48.274Z,9.07
2022-08-25T04:18:13.858Z,9.52
2022-08-25T04:18:35.970Z,9.50
2022-08-25T04:18:59.510Z,8.93
2022-08-25T04:19:21.495Z,9.30
2022-08-25T04:19:43.684Z,9.18
2022-08-25T04:20:07.035Z,9.15
2022-08-25T04:20:28.802Z,9.13
2022-08-25T04:20:51.176Z,8.50
2022-08-25T04:21:14.170Z,9.18
2022-08-25T04:21:40.679Z,9.30
2022-08-25T04:22:02.577Z,9.60
2022-08-25T04:22:25.329Z,9.15
2022-08-25T04:22:50.641Z,9.32
2022-08-25T04:23:12.400Z,9.07
2022-08-25T04:23:34.191Z,8.90
2022-08-25T04:23:57.433Z,9.10
2022-08-25T04:24:19.656Z,8.57
2022-08-25T04:24:41.553Z,8.88
2022-08-25T04:25:04.948Z,8.73
2022-08-25T04:25:27.336Z,8.80
2022-08-25T04:25:49.117Z,9.23
2022-08-25T04:26:17.033Z,9.05
2022-08-25T04:26:42.788Z,8.23
2022-08-25T04:27:04.925Z,8.68
2022-08-25T04:27:26.916Z,8.45
2022-08-25T04:27:48.667Z,8.88
2022-08-25T04:28:10.925Z,8.63
2022-08-25T04:28:32.676Z,8.57
2022-08-25T04:28:56.731Z,8.90
2022-08-25T04:29:23.597Z,8.80
2022-08-25T04:29:45.747Z,8.75
2022-08-25T04:30:08.538Z,8.43
2022-08-25T04:30:31.157Z,9.07
2022-08-25T04:30:55.742Z,8.90
2022-08-25T04:31:19.555Z,9.20
2022-08-25T04:31:44.222Z,8.77
2022-08-25T04:32:06.356Z,8.82
2022-08-25T04:32:28.383Z,8.45
2022-08-25T04:32:50.422Z,8.52
2022-08-25T04:33:13.089Z,9.07
2022-08-25T04:33:39.163Z,8.68
2022-08-25T04:34:04.992Z,8.70
2022-08-25T04:34:46.907Z,8.13
2022-08-25T04:35:09.775Z,8.50
2022-08-25T04:35:31.581Z,8.68
2022-08-25T04:35:54.126Z,8.80
2022-08-25T04:36:18.022Z,8.63
2022-08-25T04:36:40.392Z,8.65
2022-08-25T04:37:05.503Z,8.65
2022-08-25T04:37:28.620Z,9.23
2022-08-25T04:37:50.481Z,8.70
2022-08-25T04:38:12.458Z,8.25
2022-08-25T04:38:34.791Z,7.88
2022-08-25T04:38:57.137Z,8.52
2022-08-25T04:39:20.751Z,8.63
2022-08-25T04:39:42.558Z,9.35
2022-08-25T04:40:05.673Z,8.52
2022-08-25T04:40:29.155Z,8.43
2022-08-25T04:41:03.141Z,8.90
2022-08-25T04:41:25.603Z,8.45
2022-08-25T04:41:49.624Z,8.32
2022-08-25T04:42:11.709Z,8.57
2022-08-25T04:42:34.586Z,8.38
2022-08-25T04:42:56.541Z,8.63
2022-08-25T04:43:18.314Z,8.00
2022-08-25T04:43:41.872Z,8.13
2022-08-25T04:44:04.235Z,8.80
2022-08-25T04:44:26.338Z,8.40
2022-08-25T04:44:48.748Z,8.25
2022-08-25T04:45:11.154Z,8.32
2022-08-25T04:45:38.117Z,8.43
2022-08-25T04:46:00.273Z,8.20
2022-08-25T04:46:25.848Z,8.30
2022-08-25T04:46:47.653Z,8.20
2022-08-25T04:47:11.020Z,8.63
2022-08-25T04:47:38.389Z,9.00
2022-08-25T04:48:01.360Z,8.57
2022-08-25T04:48:23.605Z,8.10
2022-08-25T04:48:45.623Z,8.07
2022-08-25T04:49:07.658Z,8.10
2022-08-25T04:49:30.635Z,7.53
2022-08-25T04:49:52.737Z,8.20
2022-08-25T04:50:14.641Z,8.02
2022-08-25T04:50:39.601Z,8.38
2022-08-25T04:51:09.307Z,8.05
2022-08-25T04:51:36.593Z,8.18
2022-08-25T04:51:58.504Z,7.47
2022-08-25T04:52:20.740Z,7.50
2022-08-25T04:52:42.613Z,8.32
2022-08-25T04:53:04.681Z,8.23
2022-08-25T04:53:26.444Z,7.60
2022-08-25T04:53:48.252Z,7.38
2022-08-25T04:54:12.811Z,7.80
2022-08-25T04:54:37.483Z,8.05
2022-08-25T04:55:00.176Z,8.00
2022-08-25T04:55:22.345Z,8.07
2022-08-25T04:55:46.588Z,8.18
2022-08-25T04:56:11.930Z,7.68
2022-08-25T04:56:34.254Z,8.63
2022-08-25T04:56:58.756Z,8.40
2022-08-25T04:57:20.958Z,8.25
2022-08-25T04:57:43.419Z,8.05
2022-08-25T04:58:05.329Z,8.20
2022-08-25T04:58:34.472Z,8.27
2022-08-25T04:58:56.678Z,8.15
2022-08-25T04:59:19.284Z,8.52
2022-08-25T04:59:42.596Z,8.40
2022-08-25T05:00:05.950Z,8.27
2022-08-25T05:00:27.722Z,7.88
2022-08-25T05:00:49.565Z,8.07
2022-08-25T05:01:20.541Z,8.10
2022-08-25T05:01:43.704Z,8.75
2022-08-25T05:02:06.700Z,8.02
2022-08-25T05:02:28.751Z,8.20
2022-08-25T05:02:50.576Z,8.18
2022-08-25T05:03:12.748Z,8.07
2022-08-25T05:03:35.189Z,7.88
2022-08-25T05:04:03.615Z,8.02
2022-08-25T05:04:28.721Z,8.05
2022-08-25T05:04:51.263Z,7.82
2022-08-25T05:05:15.590Z,8.02
2022-08-25T05:05:38.918Z,8.30
2022-08-25T05:06:01.204Z,8.40
2022-08-25T05:06:23.613Z,8.60
2022-08-25T05:06:46.561Z,8.15
2022-08-25T05:07:09.112Z,8.77
2022-08-25T05:07:30.896Z,8.45
2022-08-25T05:07:56.195Z,8.30
2022-08-25T05:08:18.095Z,8.43
2022-08-25T05:08:40.450Z,8.05
2022-08-25T05:09:04.017Z,8.15
2022-08-25T05:09:27.538Z,8.40
2022-08-25T05:09:49.791Z,7.82
2022-08-25T05:10:11.597Z,8.02
2022-08-25T05:10:34.347Z,8.40
2022-08-25T05:10:56.800Z,8.27
2022-08-25T05:11:19.964Z,8.48
2022-08-25T05:11:45.413Z,7.97
2022-08-25T05:12:09.125Z,8.13
2022-08-25T05:12:34.275Z,7.75
2022-08-25T05:12:57.631Z,8.27
2022-08-25T05:13:19.478Z,7.93
2022-08-25T05:13:42.275Z,7.80
2022-08-25T05:14:05.427Z,7.87
2022-08-25T05:14:27.493Z,8.07
2022-08-25T05:14:53.101Z,7.93
2022-08-25T05:15:33.854Z,8.05
2022-08-25T05:15:58.434Z,8.07
2022-08-25T05:16:24.598Z,7.45
2022-08-25T05:16:46.849Z,8.00
2022-08-25T05:17:08.816Z,7.72
2022-08-25T05:17:31.775Z,7.63
2022-08-25T05:17:55.952Z,7.45
2022-08-25T05:18:19.478Z,7.88
2022-08-25T05:18:41.672Z,7.65
2022-08-25T05:19:04.740Z,7.60